Time;durP1;ratioP1;P1;durP2;ratioP2;P2;SDS_P1;SDS_P2;PMS_P1;PMS_P2;Temp;Humidity;BMP_temperature;BMP_pressure;BME280_temperature;BME280_humidity;BME280_pressure;Samples;Min_cycle;Max_cycle;Signal;HPM_P1;HPM_P2
2023/09/05 00:00:13;;;;;;;6.03;3.83;;;;;;;-144.73;100.00;54387.19;5027321;28;20441;-73
2023/09/05 00:02:41;;;;;;;6.07;3.63;;;;;;;-144.73;100.00;54358.44;5023763;28;20018;-73
2023/09/05 00:05:07;;;;;;;5.55;3.28;;;;;;;-144.73;100.00;54383.06;5028709;28;20028;-73
2023/09/05 00:07:35;;;;;;;6.03;3.80;;;;;;;-144.73;100.00;54413.84;5026120;28;20025;-73
2023/09/05 00:10:03;;;;;;;6.70;3.95;;;;;;;-144.73;100.00;54374.84;5018277;28;20024;-73
2023/09/05 00:12:29;;;;;;;5.15;3.67;;;;;;;-144.73;100.00;54420.00;5019471;28;20061;-74
2023/09/05 00:14:55;;;;;;;7.95;3.85;;;;;;;-144.73;100.00;54387.19;5017268;28;20082;-74
2023/09/05 00:17:20;;;;;;;9.18;4.03;;;;;;;-144.73;100.00;54370.75;5043329;28;20121;-73
2023/09/05 00:19:46;;;;;;;6.38;3.88;;;;;;;-144.73;100.00;54411.81;5018647;28;20109;-73
2023/09/05 00:22:12;;;;;;;8.73;4.00;;;;;;;-144.73;100.00;54352.28;5022432;28;20029;-71
2023/09/05 00:24:38;;;;;;;5.40;4.20;;;;;;;-144.73;100.00;54358.44;5024213;28;20025;-73
2023/09/05 00:27:12;;;;;;;4.68;3.60;;;;;;;-144.73;100.00;54381.00;5036336;28;20021;-75
2023/09/05 00:29:38;;;;;;;6.72;3.90;;;;;;;-144.73;100.00;54362.53;5053240;28;20112;-74
2023/09/05 00:32:04;;;;;;;6.63;4.07;;;;;;;-144.73;100.00;54356.38;5053899;28;20024;-74
2023/09/05 00:34:32;;;;;;;5.30;3.63;;;;;;;-144.73;100.00;54393.34;5035643;28;20025;-74
2023/09/05 00:37:00;;;;;;;4.93;3.60;;;;;;;-144.73;100.00;54389.22;5036397;28;20017;-74
2023/09/05 00:39:29;;;;;;;5.60;4.03;;;;;;;-144.73;100.00;54370.75;5053113;28;20523;-74
2023/09/05 00:41:56;;;;;;;7.18;4.47;;;;;;;-144.73;100.00;54407.69;5035842;28;20475;-74
2023/09/05 00:44:26;;;;;;;6.05;3.70;;;;;;;-144.73;100.00;54415.91;5035424;28;20037;-74
2023/09/05 00:46:52;;;;;;;5.90;3.70;;;;;;;-144.73;100.00;54366.66;5036129;28;20039;-74
2023/09/05 00:49:22;;;;;;;4.88;3.70;;;;;;;-144.73;100.00;54383.06;5035319;28;20091;-74
2023/09/05 00:51:52;;;;;;;5.93;3.90;;;;;;;-144.73;100.00;54391.28;5035352;28;20029;-74
2023/09/05 00:54:18;;;;;;;8.07;3.95;;;;;;;-144.73;100.00;54350.22;5035227;28;20037;-74
2023/09/05 00:56:44;;;;;;;8.32;3.90;;;;;;;-144.73;100.00;54391.28;5035635;28;20025;-74
2023/09/05 00:59:10;;;;;;;7.75;3.85;;;;;;;-144.73;100.00;54366.66;5034980;28;20033;-74
2023/09/05 01:01:35;;;;;;;8.00;3.70;;;;;;;-144.73;100.00;54358.44;5035958;28;20031;-75
2023/09/05 01:04:01;;;;;;;6.28;3.85;;;;;;;-144.73;100.00;54407.69;5035228;28;20033;-75
2023/09/05 01:06:46;;;;;;;5.15;3.15;;;;;;;-144.73;100.00;54407.69;5035929;28;20380;-75
2023/09/05 01:09:24;;;;;;;5.82;4.07;;;;;;;-144.73;100.00;54395.38;5035704;28;20056;-75
2023/09/05 01:11:50;;;;;;;9.18;4.90;;;;;;;-144.73;100.00;54370.75;5035500;28;20040;-75
2023/09/05 01:14:16;;;;;;;10.57;4.05;;;;;;;-144.73;100.00;54395.38;5035104;28;20029;-75
2023/09/05 01:16:45;;;;;;;8.13;4.22;;;;;;;-144.73;100.00;54383.06;5035205;28;20063;-75
2023/09/05 01:19:16;;;;;;;6.50;3.92;;;;;;;-144.73;100.00;54370.75;5034945;28;20041;-75
2023/09/05 01:22:24;;;;;;;7.43;4.80;;;;;;;-144.73;100.00;54364.59;5035323;28;20064;-75
2023/09/05 01:24:50;;;;;;;5.65;3.92;;;;;;;-144.73;100.00;54337.91;5034371;28;20068;-75
2023/09/05 01:27:22;;;;;;;9.05;4.10;;;;;;;-144.73;100.00;54411.81;5035131;28;20049;-75
2023/09/05 01:29:48;;;;;;;10.80;4.13;;;;;;;-144.73;100.00;54374.84;5034623;28;20072;-75
2023/09/05 01:32:14;;;;;;;6.10;3.40;;;;;;;-144.73;100.00;54370.75;5053071;28;20024;-74
2023/09/05 01:34:40;;;;;;;7.00;4.22;;;;;;;-144.73;100.00;54333.81;5034417;28;20083;-75
2023/09/05 01:37:06;;;;;;;7.63;4.22;;;;;;;-144.73;100.00;54358.44;5034927;28;20029;-75
2023/09/05 01:39:31;;;;;;;6.10;3.55;;;;;;;-144.73;100.00;54395.38;5034182;28;20033;-75
2023/09/05 01:41:58;;;;;;;4.90;3.92;;;;;;;-144.73;100.00;54424.13;5035190;28;20028;-75
2023/09/05 01:44:23;;;;;;;5.80;4.05;;;;;;;-144.73;100.00;54407.69;5050846;28;20056;-75
2023/09/05 01:46:49;;;;;;;5.07;3.78;;;;;;;-144.73;100.00;54350.22;5051294;28;20526;-74
2023/09/05 01:49:14;;;;;;;4.57;3.70;;;;;;;-144.73;100.00;54358.44;5033251;28;20037;-73
2023/09/05 01:51:39;;;;;;;10.10;4.50;;;;;;;-144.73;100.00;54366.66;5051058;28;20029;-74
2023/09/05 01:54:05;;;;;;;8.35;3.72;;;;;;;-144.73;100.00;54395.38;5051307;28;20068;-73
2023/09/05 01:56:30;;;;;;;7.55;4.78;;;;;;;-144.73;100.00;54383.06;5033957;28;20021;-73
2023/09/05 01:58:55;;;;;;;8.20;3.70;;;;;;;-144.73;100.00;54374.84;5033273;28;20040;-74
2023/09/05 02:01:21;;;;;;;6.28;4.30;;;;;;;-144.73;100.00;54370.75;5033708;28;20032;-74
2023/09/05 02:03:47;;;;;;;5.95;4.10;;;;;;;-144.73;100.00;54354.34;5050644;28;20134;-74
2023/09/05 02:06:13;;;;;;;6.38;3.90;;;;;;;-144.73;100.00;54387.19;5033510;28;20021;-74
2023/09/05 02:08:39;;;;;;;4.47;3.65;;;;;;;-144.73;100.00;54366.66;5032778;28;20036;-74
2023/09/05 02:11:04;;;;;;;5.88;4.30;;;;;;;-144.73;100.00;54407.69;5033415;28;20467;-74
2023/09/05 02:13:29;;;;;;;6.18;4.15;;;;;;;-144.73;100.00;54358.44;5050476;28;20036;-74
2023/09/05 02:15:55;;;;;;;5.32;4.28;;;;;;;-144.73;100.00;54411.81;5033658;28;20028;-74
2023/09/05 02:18:20;;;;;;;4.82;3.85;;;;;;;-144.73;100.00;54366.66;5032921;28;20032;-74
2023/09/05 02:20:46;;;;;;;8.20;3.90;;;;;;;-144.73;100.00;54337.91;5033714;28;20074;-74
2023/09/05 02:23:11;;;;;;;6.70;4.05;;;;;;;-144.73;100.00;54362.53;5032869;28;20095;-74
2023/09/05 02:25:36;;;;;;;7.18;4.30;;;;;;;-144.73;100.00;54374.84;5033117;28;20021;-74
2023/09/05 02:28:02;;;;;;;6.38;3.97;;;;;;;-144.73;100.00;54374.84;5033129;28;20029;-74
2023/09/05 02:30:29;;;;;;;6.80;3.85;;;;;;;-144.73;100.00;54366.66;5033250;28;20476;-74
2023/09/05 02:32:55;;;;;;;8.65;3.97;;;;;;;-144.73;100.00;54424.13;5033112;28;20032;-74
2023/09/05 02:35:24;;;;;;;5.95;4.22;;;;;;;-144.73;100.00;54395.38;5033614;28;20029;-74
2023/09/05 02:37:51;;;;;;;12.32;4.07;;;;;;;-144.73;100.00;54354.34;5049496;28;20040;-74
2023/09/05 02:40:17;;;;;;;7.60;4.47;;;;;;;-144.73;100.00;54395.38;5033286;28;20025;-74
2023/09/05 02:42:42;;;;;;;7.53;4.30;;;;;;;-144.73;100.00;54337.91;5050399;28;20037;-74
2023/09/05 02:45:08;;;;;;;7.30;4.20;;;;;;;-144.73;100.00;54407.69;5033266;28;20037;-74
2023/09/05 02:47:33;;;;;;;5.65;4.03;;;;;;;-144.73;100.00;54415.91;5032696;28;20021;-74
2023/09/05 02:49:59;;;;;;;7.75;4.47;;;;;;;-144.73;100.00;54391.28;5033155;28;20159;-74
2023/09/05 02:52:24;;;;;;;8.93;4.28;;;;;;;-144.73;100.00;54378.97;5032744;28;20048;-74
2023/09/05 02:54:50;;;;;;;8.15;4.38;;;;;;;-144.73;100.00;54358.44;5033130;28;20503;-74
2023/09/05 02:57:16;;;;;;;8.18;4.72;;;;;;;-144.73;100.00;54387.19;5033101;28;20017;-74
2023/09/05 02:59:41;;;;;;;10.32;4.65;;;;;;;-144.73;100.00;54374.84;5049961;28;20447;-74
2023/09/05 03:02:06;;;;;;;6.70;4.20;;;;;;;-144.73;100.00;54370.75;5033361;28;20047;-74
2023/09/05 03:04:32;;;;;;;6.25;3.88;;;;;;;-144.73;100.00;54415.91;5032808;28;20036;-74
2023/09/05 03:07:00;;;;;;;7.53;4.35;;;;;;;-144.73;100.00;54432.31;5032855;28;20028;-74
2023/09/05 03:09:25;;;;;;;7.53;4.63;;;;;;;-144.73;100.00;54407.69;5050489;28;20029;-74
2023/09/05 03:11:50;;;;;;;8.77;5.55;;;;;;;-144.73;100.00;54411.81;5032870;28;20033;-74
2023/09/05 03:14:16;;;;;;;7.07;4.68;;;;;;;-144.73;100.00;54378.97;5032411;28;20106;-74
2023/09/05 03:16:41;;;;;;;8.65;4.70;;;;;;;-144.73;100.00;54389.22;5033614;28;20431;-74
2023/09/05 03:19:06;;;;;;;5.47;4.57;;;;;;;-144.73;100.00;54395.38;5032090;28;20037;-74
2023/09/05 03:21:32;;;;;;;8.27;4.20;;;;;;;-144.73;100.00;54366.66;5032514;28;20025;-74
2023/09/05 03:23:59;;;;;;;9.13;4.93;;;;;;;-144.73;100.00;54409.75;5035804;28;20040;-74
2023/09/05 03:26:24;;;;;;;7.43;5.63;;;;;;;-144.73;100.00;54356.38;5036420;28;20384;-74
2023/09/05 03:28:49;;;;;;;13.07;4.97;;;;;;;-144.73;100.00;54374.84;5054059;28;20025;-74
2023/09/05 03:31:15;;;;;;;8.00;5.50;;;;;;;-144.73;100.00;54430.28;5036703;28;20017;-74
2023/09/05 03:33:41;;;;;;;8.00;5.03;;;;;;;-144.73;100.00;54362.53;5036101;28;20511;-74
2023/09/05 03:36:08;;;;;;;8.60;4.85;;;;;;;-144.73;100.00;54376.91;5053125;28;20105;-74
2023/09/05 03:38:34;;;;;;;8.30;4.68;;;;;;;-144.73;100.00;54362.53;5035854;28;20039;-74
2023/09/05 03:41:00;;;;;;;6.28;4.30;;;;;;;-144.73;100.00;54378.97;5054309;28;20387;-74
2023/09/05 03:43:25;;;;;;;9.40;4.88;;;;;;;-144.73;100.00;54376.91;5035602;28;20033;-74
2023/09/05 03:45:51;;;;;;;10.57;5.00;;;;;;;-144.73;100.00;54397.44;5053943;28;20108;-74
2023/09/05 03:48:16;;;;;;;9.98;4.45;;;;;;;-144.73;100.00;54368.69;5035719;28;20124;-74
2023/09/05 03:50:41;;;;;;;10.50;5.18;;;;;;;-144.73;100.00;54387.19;5036287;28;20025;-74
2023/09/05 03:53:07;;;;;;;8.23;6.00;;;;;;;-144.73;100.00;54428.22;5035204;28;20047;-74
2023/09/05 03:55:34;;;;;;;9.65;5.28;;;;;;;-144.73;100.00;54374.84;5035664;28;20025;-74
2023/09/05 03:58:00;;;;;;;9.70;4.22;;;;;;;-144.73;100.00;54411.81;5035649;28;20032;-74
2023/09/05 04:00:25;;;;;;;13.77;6.15;;;;;;;-144.73;100.00;54395.38;5035613;28;20064;-74
2023/09/05 04:02:51;;;;;;;10.63;6.43;;;;;;;-144.73;100.00;54391.28;5035790;28;20065;-74
2023/09/05 04:05:16;;;;;;;8.48;5.05;;;;;;;-144.73;100.00;54407.69;5036299;28;20029;-74
2023/09/05 04:07:41;;;;;;;7.20;5.40;;;;;;;-144.73;100.00;54407.69;5035215;28;20036;-74
2023/09/05 04:10:07;;;;;;;9.18;5.97;;;;;;;-144.73;100.00;54424.13;5035983;28;20029;-74
2023/09/05 04:12:33;;;;;;;5.82;5.22;;;;;;;-144.73;100.00;54387.19;5035175;28;20530;-74
2023/09/05 04:14:58;;;;;;;7.20;5.32;;;;;;;-144.73;100.00;54407.69;5035741;28;20031;-73
2023/09/05 04:17:23;;;;;;;7.53;5.70;;;;;;;-144.73;100.00;54407.69;5034904;28;20066;-74
2023/09/05 04:19:53;;;;;;;10.45;5.70;;;;;;;-144.73;100.00;54364.59;5035754;28;20036;-73
2023/09/05 04:22:19;;;;;;;10.90;5.78;;;;;;;-144.73;100.00;54366.66;5035512;28;20079;-74
2023/09/05 04:24:44;;;;;;;14.57;5.60;;;;;;;-144.73;100.00;54407.69;5052714;28;20032;-73
2023/09/05 04:27:10;;;;;;;12.43;5.25;;;;;;;-144.73;100.00;54360.50;5035445;28;20029;-74
2023/09/05 04:29:35;;;;;;;9.77;5.50;;;;;;;-144.73;100.00;54391.28;5034942;28;20041;-73
2023/09/05 04:32:01;;;;;;;11.68;5.47;;;;;;;-144.73;100.00;54415.91;5036327;28;20028;-73
2023/09/05 04:34:26;;;;;;;15.00;5.70;;;;;;;-144.73;100.00;54407.69;5033620;28;20029;-73
2023/09/05 04:36:51;;;;;;;6.80;5.40;;;;;;;-144.73;100.00;54440.53;5035592;28;20025;-74
2023/09/05 04:39:17;;;;;;;8.55;5.72;;;;;;;-144.73;100.00;54440.53;5034868;28;20025;-73
2023/09/05 04:41:42;;;;;;;12.95;5.50;;;;;;;-144.73;100.00;54374.84;5035009;28;20033;-73
2023/09/05 04:44:07;;;;;;;11.30;6.03;;;;;;;-144.73;100.00;54411.81;5034609;28;20044;-73
2023/09/05 04:46:38;;;;;;;12.05;5.82;;;;;;;-144.73;100.00;54411.81;5034938;28;20032;-73
2023/09/05 04:49:04;;;;;;;7.00;5.15;;;;;;;-144.73;100.00;54395.38;5034539;28;20046;-73
2023/09/05 04:51:29;;;;;;;7.55;5.30;;;;;;;-144.73;100.00;54383.06;5052846;28;20025;-73
2023/09/05 04:53:54;;;;;;;15.55;6.20;;;;;;;-144.73;100.00;54354.34;5034848;28;20045;-76
2023/09/05 04:56:20;;;;;;;11.13;6.57;;;;;;;-144.73;100.00;54407.69;5034970;28;20035;-73
2023/09/05 04:58:45;;;;;;;12.35;6.43;;;;;;;-144.73;100.00;54374.84;5034709;28;20040;-73
2023/09/05 05:01:11;;;;;;;12.57;5.78;;;;;;;-144.73;100.00;54366.66;5034959;28;20094;-73
2023/09/05 05:03:37;;;;;;;11.30;5.85;;;;;;;-144.73;100.00;54424.13;5034425;28;20036;-73
2023/09/05 05:06:03;;;;;;;13.00;5.88;;;;;;;-144.73;100.00;54346.13;5052911;28;20025;-73
2023/09/05 05:08:28;;;;;;;11.50;6.03;;;;;;;-144.73;100.00;54391.28;5033827;28;20033;-73
2023/09/05 05:10:54;;;;;;;12.23;5.57;;;;;;;-144.73;100.00;54428.22;5034684;28;20020;-74
2023/09/05 05:13:20;;;;;;;10.73;5.70;;;;;;;-144.73;100.00;54383.06;5033997;28;20025;-74
2023/09/05 05:15:47;;;;;;;18.73;6.22;;;;;;;-144.73;100.00;54430.28;5034386;28;20427;-74
2023/09/05 05:18:15;;;;;;;15.63;8.70;;;;;;;-144.73;100.00;54407.69;5034316;28;20094;-74
2023/09/05 05:20:41;;;;;;;13.50;8.50;;;;;;;-144.73;100.00;54381.00;5035225;28;20033;-73
2023/09/05 05:23:06;;;;;;;11.98;7.80;;;;;;;-144.73;100.00;54407.69;5033939;28;20033;-73
2023/09/05 05:25:32;;;;;;;11.88;8.27;;;;;;;-144.73;100.00;54428.22;5051434;28;20020;-74
2023/09/05 05:27:58;;;;;;;11.23;7.07;;;;;;;-144.73;100.00;54362.53;5033835;28;20033;-74
2023/09/05 05:30:23;;;;;;;11.00;6.38;;;;;;;-144.73;100.00;54378.97;5034360;28;20057;-74
2023/09/05 05:32:49;;;;;;;11.70;6.63;;;;;;;-144.73;100.00;54411.81;5034142;28;20088;-74
2023/09/05 05:35:14;;;;;;;12.68;6.97;;;;;;;-144.73;100.00;54432.31;5051000;28;20017;-74
2023/09/05 05:37:40;;;;;;;19.13;6.68;;;;;;;-144.73;100.00;54370.75;5034265;28;20025;-74
2023/09/05 05:40:07;;;;;;;11.95;6.40;;;;;;;-144.73;100.00;54407.69;5052065;28;20107;-74
2023/09/05 05:42:32;;;;;;;13.20;8.00;;;;;;;-144.73;100.00;54413.84;5033408;28;20024;-74
2023/09/05 05:44:57;;;;;;;15.15;6.63;;;;;;;-144.73;100.00;54358.44;5033617;28;20031;-75
2023/09/05 05:47:24;;;;;;;11.50;6.10;;;;;;;-144.73;100.00;54411.81;5033322;28;20020;-75
2023/09/05 05:49:50;;;;;;;11.75;5.90;;;;;;;-144.73;100.00;54399.50;5034292;28;20021;-73
2023/09/05 05:52:16;;;;;;;13.88;6.13;;;;;;;-144.73;100.00;54420.00;5034450;28;20028;-75
2023/09/05 05:54:41;;;;;;;11.52;5.93;;;;;;;-144.73;100.00;54420.00;5033686;28;20032;-75
2023/09/05 05:57:06;;;;;;;11.93;6.60;;;;;;;-144.73;100.00;54383.06;5034333;28;20031;-75
2023/09/05 05:59:32;;;;;;;7.88;5.40;;;;;;;-144.73;100.00;54407.69;5034066;28;20033;-75
2023/09/05 06:01:57;;;;;;;13.88;5.63;;;;;;;-144.73;100.00;54381.00;5034614;28;20024;-75
2023/09/05 06:04:23;;;;;;;11.52;6.25;;;;;;;-144.73;100.00;54391.28;5033763;28;20037;-75
2023/09/05 06:06:49;;;;;;;11.90;6.50;;;;;;;-144.73;100.00;54424.13;5034924;28;20021;-75
2023/09/05 06:09:16;;;;;;;11.20;6.72;;;;;;;-144.73;100.00;54397.44;5052223;28;20512;-75
2023/09/05 06:11:42;;;;;;;9.98;5.60;;;;;;;-144.73;100.00;54370.75;5034965;28;20056;-75
2023/09/05 06:14:07;;;;;;;10.35;5.65;;;;;;;-144.73;100.00;54395.38;5034858;28;20045;-75
2023/09/05 06:16:33;;;;;;;12.98;5.60;;;;;;;-144.73;100.00;54407.69;5052178;28;20055;-75
2023/09/05 06:18:58;;;;;;;12.75;6.78;;;;;;;-144.73;100.00;54428.22;5034590;28;20044;-75
2023/09/05 06:21:23;;;;;;;11.68;5.47;;;;;;;-144.73;100.00;54407.69;5034196;28;20052;-74
2023/09/05 06:23:49;;;;;;;14.43;6.63;;;;;;;-144.73;100.00;54383.06;5033439;28;20029;-75
2023/09/05 06:26:14;;;;;;;11.23;6.03;;;;;;;-144.73;100.00;54420.00;5034118;28;20027;-74
2023/09/05 06:28:39;;;;;;;13.15;5.65;;;;;;;-144.73;100.00;54389.22;5033800;28;20099;-73
2023/09/05 06:31:06;;;;;;;13.23;5.90;;;;;;;-144.73;100.00;54362.53;5033801;28;20025;-75
2023/09/05 06:33:32;;;;;;;13.70;5.78;;;;;;;-144.73;100.00;54407.69;5033339;28;20037;-74
2023/09/05 06:36:04;;;;;;;8.15;5.53;;;;;;;-144.73;100.00;54374.84;5034225;28;20040;-74
2023/09/05 06:38:29;;;;;;;7.88;5.18;;;;;;;-144.73;100.00;54399.50;5033579;28;20036;-74
2023/09/05 06:40:55;;;;;;;6.75;4.95;;;;;;;-144.73;100.00;54436.44;5034018;28;20024;-74
2023/09/05 06:43:20;;;;;;;11.05;5.40;;;;;;;-144.73;100.00;54444.66;5033797;28;20037;-75
2023/09/05 06:45:46;;;;;;;11.73;5.50;;;;;;;-144.73;100.00;54415.91;5033863;28;20029;-75
2023/09/05 06:48:19;;;;;;;14.82;5.43;;;;;;;-144.73;100.00;54391.28;5034176;28;20033;-74
2023/09/05 06:50:45;;;;;;;15.70;5.53;;;;;;;-144.73;100.00;54415.91;5034504;28;20089;-75
2023/09/05 06:53:10;;;;;;;9.07;4.78;;;;;;;-144.73;100.00;54417.97;5033647;28;20052;-75
2023/09/05 06:55:36;;;;;;;15.70;5.40;;;;;;;-144.73;100.00;54428.22;5034056;28;20032;-74
2023/09/05 06:58:01;;;;;;;5.97;4.80;;;;;;;-144.73;100.00;54395.38;5036475;28;20037;-75
2023/09/05 07:00:27;;;;;;;11.23;4.82;;;;;;;-144.73;100.00;54370.75;5037911;28;20021;-75
2023/09/05 07:02:53;;;;;;;8.57;4.95;;;;;;;-144.73;100.00;54407.69;5037653;28;20076;-75
2023/09/05 07:05:18;;;;;;;5.55;4.13;;;;;;;-144.73;100.00;54407.69;5038917;28;20541;-75
2023/09/05 07:07:44;;;;;;;9.52;5.15;;;;;;;-144.73;100.00;54407.69;5037750;28;20029;-75
2023/09/05 07:10:09;;;;;;;8.00;4.05;;;;;;;-144.73;100.00;54366.66;5038990;28;20032;-75
2023/09/05 07:12:35;;;;;;;12.60;4.75;;;;;;;-144.73;100.00;54356.38;5037357;28;20143;-75
2023/09/05 07:15:01;;;;;;;10.60;4.10;;;;;;;-144.73;100.00;54391.28;5037257;28;20021;-75
2023/09/05 07:17:26;;;;;;;11.57;4.82;;;;;;;-144.73;100.00;54407.69;5032564;28;20108;-74
2023/09/05 07:19:52;;;;;;;11.73;4.05;;;;;;;-144.73;100.00;54378.97;5026148;28;20024;-74
2023/09/05 07:22:17;;;;;;;15.38;4.50;;;;;;;-144.73;100.00;54407.69;5011964;28;20029;-75
2023/09/05 07:24:42;;;;;;;10.77;4.63;;;;;;;-144.73;100.00;54362.53;5013968;28;20036;-75
2023/09/05 07:27:09;;;;;;;11.88;4.35;;;;;;;-144.73;100.00;54383.06;5015573;28;20036;-74
2023/09/05 07:29:34;;;;;;;8.70;3.97;;;;;;;-144.73;100.00;54407.69;5015752;28;20029;-72
2023/09/05 07:32:01;;;;;;;13.93;4.88;;;;;;;-144.73;100.00;54381.00;5026045;28;20024;-73
2023/09/05 07:34:27;;;;;;;12.82;4.45;;;;;;;-144.73;100.00;54354.34;5029505;22;20068;-73
2023/09/05 07:36:54;;;;;;;12.05;4.45;;;;;;;-144.73;100.00;54358.44;5010677;28;20025;-74
2023/09/05 07:39:24;;;;;;;11.98;4.13;;;;;;;-144.73;100.00;54411.81;5007948;28;20052;-72
2023/09/05 07:41:50;;;;;;;9.82;4.00;;;;;;;-144.73;100.00;54346.13;5011404;28;20109;-71
2023/09/05 07:44:15;;;;;;;6.93;4.10;;;;;;;-144.73;100.00;54370.75;5000778;28;20075;-74
2023/09/05 07:46:41;;;;;;;7.53;4.25;;;;;;;-144.73;100.00;54346.13;5005342;28;20048;-72
2023/09/05 07:49:07;;;;;;;10.27;3.42;;;;;;;-144.73;100.00;54407.69;5007665;28;20442;-72
2023/09/05 07:51:32;;;;;;;7.68;4.35;;;;;;;-144.73;100.00;54354.34;5009312;28;20079;-73
2023/09/05 07:54:03;;;;;;;6.97;4.15;;;;;;;-144.73;100.00;54411.81;5004110;28;20164;-71
2023/09/05 07:56:30;;;;;;;10.88;4.05;;;;;;;-144.73;100.00;54358.44;5005455;28;20026;-76
2023/09/05 07:58:58;;;;;;;6.88;3.75;;;;;;;-144.73;100.00;54354.34;5009810;28;20045;-72
2023/09/05 08:01:26;;;;;;;12.18;4.53;;;;;;;-144.73;100.00;54370.75;5010921;28;20028;-75
2023/09/05 08:03:54;;;;;;;7.18;3.53;;;;;;;-144.73;100.00;54383.06;5003823;28;20046;-72
2023/09/05 08:06:22;;;;;;;8.57;3.83;;;;;;;-144.73;100.00;54342.03;5004710;28;20021;-74
2023/09/05 08:08:50;;;;;;;11.25;3.78;;;;;;;-144.73;100.00;54350.22;5005601;28;20032;-71
2023/09/05 08:11:19;;;;;;;6.70;3.70;;;;;;;-144.73;100.00;54333.81;5007888;28;20033;-73
2023/09/05 08:13:53;;;;;;;8.27;3.67;;;;;;;-144.73;100.00;54366.66;5006208;28;20034;-74
2023/09/05 08:16:18;;;;;;;12.80;3.20;;;;;;;-144.73;100.00;54346.13;5002744;28;20488;-73
2023/09/05 08:18:44;;;;;;;8.10;3.97;;;;;;;-144.73;100.00;54370.75;5011106;28;20035;-73
2023/09/05 08:21:10;;;;;;;9.32;3.50;;;;;;;-144.73;100.00;54342.03;5003428;28;20103;-74
2023/09/05 08:24:15;;;;;;;4.95;3.30;;;;;;;-144.73;100.00;54350.22;5001496;28;20049;-71
2023/09/05 08:27:02;;;;;;;11.02;3.55;;;;;;;-144.73;100.00;54362.53;4945204;28;20035;-73
2023/09/05 08:29:42;;;;;;;5.38;3.22;;;;;;;-144.73;100.00;54370.75;4938126;28;20075;-72
2023/09/05 08:32:08;;;;;;;7.15;3.88;;;;;;;-144.73;100.00;54358.44;5004333;28;20042;-72
2023/09/05 08:34:33;;;;;;;7.15;3.55;;;;;;;-144.73;100.00;54305.06;5012724;28;20112;-75
2023/09/05 08:36:59;;;;;;;7.75;3.58;;;;;;;-144.73;100.00;54344.06;5013394;28;20037;-75
2023/09/05 08:39:26;;;;;;;5.65;3.75;;;;;;;-144.73;100.00;54327.66;5003441;28;20034;-74
2023/09/05 08:41:52;;;;;;;9.15;3.38;;;;;;;-144.73;100.00;54354.34;5011394;28;20021;-74
2023/09/05 08:44:18;;;;;;;8.40;4.22;;;;;;;-144.73;100.00;54356.38;5010523;28;20132;-74
2023/09/05 08:46:46;;;;;;;5.57;3.50;;;;;;;-144.73;100.00;54370.75;5012918;28;20092;-74
2023/09/05 08:49:12;;;;;;;7.03;3.50;;;;;;;-144.73;100.00;54292.75;5016612;28;20037;-73
2023/09/05 08:51:40;;;;;;;10.32;3.53;;;;;;;-144.73;99.76;54358.44;5008431;28;20032;-74
2023/09/05 08:54:15;;;;;;;7.13;3.58;;;;;;;-144.73;100.00;54348.19;5011465;28;20049;-75
2023/09/05 08:57:07;;;;;;;6.93;3.15;;;;;;;-144.73;97.86;54370.75;5011630;28;20124;-74
2023/09/05 08:59:42;;;;;;;13.40;3.45;;;;;;;-144.73;94.03;54313.28;5029395;28;20034;-74
2023/09/05 09:02:16;;;;;;;13.43;3.75;;;;;;;-144.73;94.48;54346.13;5007131;28;20041;-74
2023/09/05 09:05:06;;;;;;;10.98;3.17;;;;;;;-144.73;95.67;54325.59;5004928;28;20504;-73
2023/09/05 09:07:35;;;;;;;9.75;3.92;;;;;;;-144.73;95.71;54333.81;5011131;28;20021;-74
2023/09/05 09:10:23;;;;;;;9.30;3.38;;;;;;;-144.73;92.73;54317.38;5013056;28;20017;-73
2023/09/05 09:13:14;;;;;;;11.13;4.07;;;;;;;-144.73;92.00;54354.34;5001603;28;20065;-74
2023/09/05 09:16:02;;;;;;;9.32;3.88;;;;;;;-144.73;92.01;54309.19;5005406;28;20022;-74
2023/09/05 09:18:26;;;;;;;8.52;3.80;;;;;;;-144.73;85.87;54307.13;5023766;28;20419;-73
2023/09/05 09:21:08;;;;;;;11.77;3.80;;;;;;;-144.73;84.75;54333.81;5002826;28;20056;-75
2023/09/05 09:23:44;;;;;;;10.38;3.30;;;;;;;-144.73;86.70;54286.59;5008879;28;20033;-73
2023/09/05 09:26:17;;;;;;;13.82;3.30;;;;;;;-144.73;87.31;54325.59;5010680;28;20108;-73
2023/09/05 09:28:55;;;;;;;7.50;3.72;;;;;;;-144.73;84.20;54305.06;4999996;28;20057;-74
2023/09/05 09:31:29;;;;;;;7.70;3.53;;;;;;;-144.73;81.12;54337.91;5011070;28;20044;-74
2023/09/05 09:34:20;;;;;;;8.18;3.53;;;;;;;-144.73;83.70;54317.38;5004671;28;20053;-73
2023/09/05 09:37:12;;;;;;;9.90;3.97;;;;;;;-144.73;83.52;54329.72;5004392;28;20045;-73
2023/09/05 09:39:38;;;;;;;12.48;3.75;;;;;;;-144.73;83.34;54321.50;4997591;28;20045;-74
2023/09/05 09:42:06;;;;;;;12.30;4.00;;;;;;;-144.73;80.63;54315.34;5011736;28;20021;-74
2023/09/05 09:44:35;;;;;;;9.43;3.20;;;;;;;-144.73;81.18;54296.88;5005383;28;20446;-72
2023/09/05 09:47:10;;;;;;;10.60;3.53;;;;;;;-144.73;82.08;54292.75;5010853;28;20067;-72
2023/09/05 09:49:53;;;;;;;13.18;4.43;;;;;;;-144.73;80.09;54282.50;5000826;28;20029;-71
2023/09/05 09:52:43;;;;;;;12.23;3.25;;;;;;;-144.73;80.74;54307.13;5011520;28;20105;-72
2023/09/05 09:55:19;;;;;;;13.88;3.63;;;;;;;-144.73;77.67;54296.88;5013353;28;20017;-72
2023/09/05 09:58:03;;;;;;;5.88;2.90;;;;;;;-144.73;76.08;54327.66;4998603;28;20069;-71
2023/09/05 10:00:32;;;;;;;10.95;3.50;;;;;;;-144.73;73.85;54296.88;5010200;28;20445;-73
2023/09/05 10:03:03;;;;;;;11.32;2.90;;;;;;;-144.73;74.01;54288.66;5009692;28;20120;-74
2023/09/05 10:05:30;;;;;;;5.85;3.25;;;;;;;-144.73;73.16;54296.88;5009211;28;20041;-73
2023/09/05 10:07:57;;;;;;;9.02;2.72;;;;;;;-144.73;70.75;54268.13;5003046;28;20163;-74
2023/09/05 10:10:24;;;;;;;8.75;2.80;;;;;;;-144.73;70.15;54284.56;5019127;28;20028;-74
2023/09/05 10:12:51;;;;;;;5.88;3.22;;;;;;;-144.73;65.25;54280.44;5010149;28;20037;-73
2023/09/05 10:15:18;;;;;;;19.90;3.60;;;;;;;-144.73;67.85;54280.44;5008873;28;20026;-74
2023/09/05 10:17:45;;;;;;;7.35;3.00;;;;;;;-144.73;64.66;54294.81;5009203;28;20033;-74
2023/09/05 10:20:19;;;;;;;9.25;3.15;;;;;;;-144.73;66.25;54276.34;5010141;28;20014;-75
2023/09/05 10:22:55;;;;;;;13.77;3.28;;;;;;;-144.73;66.46;54264.03;5011003;28;20041;-74
2023/09/05 10:25:23;;;;;;;13.55;2.97;;;;;;;-144.73;67.44;54255.81;5009210;28;20057;-74
2023/09/05 10:27:49;;;;;;;9.05;3.00;;;;;;;-144.73;64.76;54255.81;5014094;28;20041;-74
2023/09/05 10:30:15;;;;;;;4.78;2.90;;;;;;;-144.73;61.95;54276.34;5008115;28;20108;-74
2023/09/05 10:32:44;;;;;;;6.00;3.05;;;;;;;-144.73;60.04;54292.75;5010865;28;20104;-74
2023/09/05 10:35:15;;;;;;;9.95;3.13;;;;;;;-144.73;57.51;54243.50;5013230;28;20025;-74
2023/09/05 10:37:45;;;;;;;8.55;3.60;;;;;;;-144.73;59.94;54276.34;5020278;28;20030;-73
2023/09/05 10:40:11;;;;;;;7.13;3.53;;;;;;;-144.73;58.95;54255.81;5013300;28;20104;-73
2023/09/05 10:42:54;;;;;;;5.88;3.00;;;;;;;-144.73;57.27;54247.59;5015959;28;20029;-73
2023/09/05 10:45:23;;;;;;;17.55;4.45;;;;;;;-144.73;61.32;54276.34;5013734;28;20101;-73
2023/09/05 10:47:49;;;;;;;11.82;3.80;;;;;;;-144.73;59.99;54284.56;5009167;28;20037;-73
2023/09/05 10:50:19;;;;;;;8.35;3.53;;;;;;;-144.73;59.48;54239.41;5025191;28;20025;-74
2023/09/05 10:52:49;;;;;;;11.80;4.55;;;;;;;-144.73;59.41;54255.81;5010490;28;20033;-74
2023/09/05 10:55:32;;;;;;;11.00;4.55;;;;;;;-144.73;58.56;54255.81;5011212;28;20048;-73
2023/09/05 10:57:58;;;;;;;10.80;3.28;;;;;;;-144.73;57.66;54243.50;5010534;28;20128;-72
2023/09/05 11:00:26;;;;;;;13.77;2.70;;;;;;;-144.73;56.38;54233.25;5015539;28;20159;-73
2023/09/05 11:02:54;;;;;;;8.70;3.25;;;;;;;-144.73;57.60;54278.41;5019488;28;20059;-73
2023/09/05 11:05:20;;;;;;;8.85;3.20;;;;;;;-144.73;57.03;54249.66;5017410;28;20073;-75
2023/09/05 11:07:50;;;;;;;14.45;3.35;;;;;;;-144.73;57.74;54253.75;5020761;28;20043;-72
2023/09/05 11:10:29;;;;;;;9.77;3.00;;;;;;;-144.73;53.97;54243.50;5013649;28;20053;-72